Relevés horaires Koksijde (Belgique)


Relevés horaires à Koksijde - Mercredi 17 Mai 2023
Heure UTC1 Température [°C] Vent [km/h] Hum. [%] Pres.4 [hPa] Visi. [Km] Nébu. [octa] Préc.5 [mm] Cond.
2m. Res. Ros. Dir.2 Vit. Moy. Raf.3
23:00 8.2 8.2 5.6 NNO 1.9 -- 3.7 84 1028.7(-0.1/3h) 14 -- -- --
22:00 8.6 8.6 6.0 NNO 1.9 -- 3.7 84 1028.9(0.3/3h) 20 3/8 -- --
21:00 8.9 8.9 6.0 NNO 1.9 -- 13.0 82 1028.9(0.5/3h) 20 3/8 -- --
20:00 9.4 9.4 6.1 NE 3.7 -- 11.1 80 1028.9(0.4/3h) 20 3/8 -- --
19:00 10.9 10.2 6.3 NE 7.4 -- 13.0 73 1028.5(-0.2/3h) 20 -- -- --
18:00 12.3 11.5 6.7 NE 9.3 -- 16.7 69 1028.4(-0.4/3h) 20 -- 0.1/12h
NA
17:00 12.8 12.1 6.5 ENE 9.3 -- 14.8 65 1028.4(-0.1/3h) 20 -- -- --
16:00 13.2 12.6 6.5 NE 9.3 -- 16.7 64 1028.7(0.1/3h) 20 -- -- NA
15:00 13.7 12.9 7.0 NNE 11.1 -- 16.7 64 1028.7(-0.1/3h) 19 -- -- NA
14:00 15.0 14.5 7.3 NNE 11.1 -- 16.7 60 1028.5(-0.5/3h) 20 3/8 -- --
13:00 14.8 14.2 5.5 NNE 11.1 -- 14.8 54 1028.5(-0.4/3h) 20 3/8 -- --
12:00 15.0 14.7 6.5 NNE 9.3 -- 14.8 57 1028.9(-0.1/3h) 20 5/8 0.1/6h
--
11:00 14.9 14.9 8.0 N 7.4 -- 13.0 63 1029(0.2/3h) 20 5/8 -- --
10:00 14.7 14.7 6.6 N 5.6 -- 9.3 58 1029(0.4/3h) 20 5/8 -- --
09:00 13.6 13.6 6.3 N 3.7 -- 9.3 61 1029(0.9/3h) 20 5/8 -- --
08:00 13.1 13.1 6.7 N 3.7 -- 9.3 65 1028.7(1.3/3h) 20 5/8 -- --
07:00 12.5 12.4 6.9 N 5.6 -- 9.3 69 1028.5(1.6/3h) 20 6/8 -- --
06:00 11.4 11.4 8.0 N 3.7 -- 7.4 80 1028(1.6/3h) 20 6/8 -- --
04:00 6.3 6.3 5.5 NNO 1.9 -- 1.9 95 1026.9(0.4/3h) 19 -- -- --
03:00 5.8 5.8 4.9 NNO 1.9 -- 1.9 94 1026.5(0.0/3h) 17 -- -- --
02:00 6.6 6.6 5.0 NNO 1.9 -- 1.9 89 1026.4(0.0/3h) 14 -- -- --
01:00 7.1 7.1 5.3 NNO 1.9 -- 1.9 88 1026.5(0.2/3h) 20 -- -- --
00:00 7.2 7.2 5.3 NNO 1.9 -- 13.0 88 1026.5(0.4/3h) 18 -- -- --

1 Coordinated Universal Time. Actuellement il est 01:00 locale et 23:00 UTC.

2 Le vent souffle depuis la direction indiquée vers la direction oposée.

3 Les rafales max. sont disponible 40 min après l'heure du relevé.

4 Pour les stations d'altitude (plus de 600m) le géopotentiel du niveau le plus proche de la pression obligatoire est indiqué.

5 Les stations disposant d'un diffuseur peuvent indiquer "trace". Cela signifie que des précipitations ont touchés le sol mais que la quantité est inférieure à 0.1 mm.

Récapitulatif de la journée
Température [°C] Vent [km/h] Ensoleillement4 [h] Precipitations totale5 [mm] Pression [Hpa]
Min1 Max.2 Moy.3 Max. Min Max.
5.3 15.5 0 16.7 0 h 0 min 0 1026.4 1029.0

1 Température minimale relevée entre 18:00 UTC la veille et 18:00 UTC le jour donné.

2 Température maximale relevée entre 06:00 UTC le jour donné et 06:00 UTC le lendemain.

3 Vent moyen de la journée basé sur les relevés horaires.

4 Ensoleillement en heures relevé entre 06:00 UTC la veille et 06:00 UTC le jour donné.

5 Précipitations totales tombées entre 06:00 UTC la jour donné et 06:00 UTC le lendemain.

Graphiques horaires